Time;durP1;ratioP1;P1;durP2;ratioP2;P2;SDS_P1;SDS_P2;PMS_P1;PMS_P2;Temp;Humidity;BMP_temperature;BMP_pressure;BME280_temperature;BME280_humidity;BME280_pressure;Samples;Min_cycle;Max_cycle;Signal;HPM_P1;HPM_P2
2024/01/26 00:02:18;;;;;;;17.27;12.60;;;11.00;98.10;;;;;;5033211;28;20635;-73
2024/01/26 00:04:44;;;;;;;16.58;12.85;;;10.90;98.10;;;;;;5036554;28;20029;-73
2024/01/26 00:07:10;;;;;;;18.40;13.82;;;10.90;98.10;;;;;;5026813;28;20121;-74
2024/01/26 00:09:35;;;;;;;19.15;13.25;;;10.90;98.30;;;;;;5038113;28;20527;-74
2024/01/26 00:12:01;;;;;;;17.25;13.00;;;10.90;98.30;;;;;;5034872;28;20031;-74
2024/01/26 00:14:27;;;;;;;17.60;13.32;;;10.90;98.40;;;;;;5038986;28;20033;-74
2024/01/26 00:16:52;;;;;;;20.58;12.45;;;11.00;98.50;;;;;;5036468;28;20033;-74
2024/01/26 00:19:18;;;;;;;17.90;13.20;;;11.00;98.40;;;;;;5040529;28;20044;-74
2024/01/26 00:21:44;;;;;;;16.65;12.55;;;11.00;98.50;;;;;;5043052;28;20025;-74
2024/01/26 00:24:10;;;;;;;16.10;12.68;;;11.00;98.40;;;;;;5035788;28;20476;-74
2024/01/26 00:26:36;;;;;;;17.10;13.27;;;11.00;98.40;;;;;;5041130;28;20029;-73
2024/01/26 00:29:02;;;;;;;17.13;13.80;;;11.00;98.40;;;;;;5041990;28;20041;-73
2024/01/26 00:31:27;;;;;;;18.73;13.30;;;11.00;98.40;;;;;;5039823;28;20040;-73
2024/01/26 00:33:53;;;;;;;18.02;14.38;;;11.00;98.40;;;;;;5042098;28;20063;-72
2024/01/26 00:36:19;;;;;;;18.20;13.95;;;11.00;98.40;;;;;;5040729;28;20045;-72
2024/01/26 00:38:45;;;;;;;16.20;13.10;;;11.00;98.40;;;;;;5038845;28;20251;-73
2024/01/26 00:41:10;;;;;;;18.40;12.50;;;11.10;98.40;;;;;;5030572;28;20475;-72
2024/01/26 00:43:37;;;;;;;17.88;13.55;;;11.10;98.40;;;;;;5039966;28;20036;-72
2024/01/26 00:46:03;;;;;;;17.52;13.40;;;11.10;98.40;;;;;;5039361;28;20056;-72
2024/01/26 00:48:29;;;;;;;15.93;12.88;;;11.10;98.40;;;;;;5038668;28;20017;-72
2024/01/26 00:50:55;;;;;;;18.10;13.82;;;11.10;98.40;;;;;;5040144;28;20044;-73
2024/01/26 00:53:21;;;;;;;16.02;13.25;;;11.10;98.40;;;;;;5045417;28;20032;-74
2024/01/26 00:55:48;;;;;;;15.35;12.93;;;11.10;98.40;;;;;;5047429;28;20111;-73
2024/01/26 00:58:13;;;;;;;19.17;14.13;;;11.10;98.30;;;;;;5031536;28;20116;-72
2024/01/26 01:00:39;;;;;;;17.15;13.32;;;11.10;98.30;;;;;;5031643;28;20544;-74
2024/01/26 01:03:05;;;;;;;17.45;13.77;;;11.10;98.30;;;;;;5034812;28;20017;-74
2024/01/26 01:05:31;;;;;;;18.38;14.75;;;11.20;98.30;;;;;;5048868;28;20413;-73
2024/01/26 01:07:56;;;;;;;17.95;14.48;;;11.20;98.20;;;;;;5031804;28;20028;-73
2024/01/26 01:10:22;;;;;;;21.25;13.63;;;11.20;98.20;;;;;;5034416;28;20051;-74
2024/01/26 01:12:49;;;;;;;19.88;14.68;;;11.20;98.10;;;;;;5028464;28;20021;-73
2024/01/26 01:15:15;;;;;;;19.08;15.27;;;11.20;98.10;;;;;;5040575;28;20712;-74
2024/01/26 01:17:45;;;;;;;18.55;14.77;;;11.20;98.10;;;;;;5039644;28;20027;-72
2024/01/26 01:20:13;;;;;;;19.38;15.07;;;11.20;98.10;;;;;;5046451;28;20037;-72
2024/01/26 01:22:39;;;;;;;21.33;15.05;;;11.30;98.10;;;;;;5033546;28;20025;-72
2024/01/26 01:25:06;;;;;;;20.00;15.68;;;11.20;98.00;;;;;;5042384;28;20033;-72
2024/01/26 01:27:32;;;;;;;19.77;16.02;;;11.20;98.00;;;;;;5045763;28;20017;-72
2024/01/26 01:29:58;;;;;;;19.00;15.15;;;11.20;98.00;;;;;;5033068;28;20160;-73
2024/01/26 01:32:24;;;;;;;20.83;16.23;;;11.20;97.90;;;;;;5037472;28;20056;-72
2024/01/26 01:34:50;;;;;;;19.17;15.52;;;11.20;97.90;;;;;;5036317;28;20052;-73
2024/01/26 01:37:16;;;;;;;19.08;15.48;;;11.20;97.90;;;;;;5032421;28;20067;-73
2024/01/26 01:39:41;;;;;;;20.27;15.95;;;11.20;97.90;;;;;;5051157;28;20044;-72
2024/01/26 01:42:13;;;;;;;19.63;15.90;;;11.20;97.90;;;;;;5061072;28;20024;-73
2024/01/26 01:44:43;;;;;;;23.23;17.13;;;11.20;97.90;;;;;;5052695;28;20101;-74
2024/01/26 01:47:10;;;;;;;20.45;16.33;;;11.20;97.80;;;;;;5059310;28;20080;-73
2024/01/26 01:49:39;;;;;;;22.27;16.42;;;11.30;97.80;;;;;;5060839;28;20035;-73
2024/01/26 01:52:09;;;;;;;20.05;15.77;;;11.20;97.70;;;;;;5048751;28;20035;-72
2024/01/26 01:54:40;;;;;;;21.02;16.30;;;11.20;97.70;;;;;;5044665;28;20053;-73
2024/01/26 01:57:06;;;;;;;21.45;15.35;;;11.30;97.70;;;;;;5061031;28;20025;-72
2024/01/26 01:59:32;;;;;;;19.25;14.98;;;11.30;97.70;;;;;;5044317;28;20100;-73
2024/01/26 02:01:58;;;;;;;22.50;15.80;;;11.20;97.60;;;;;;5059248;28;20387;-74
2024/01/26 02:04:23;;;;;;;23.48;15.95;;;11.20;97.70;;;;;;5040063;28;20040;-72
2024/01/26 02:07:03;;;;;;;19.13;14.35;;;11.30;97.70;;;;;;5035354;28;20021;-73
2024/01/26 02:09:29;;;;;;;17.70;15.00;;;11.30;97.70;;;;;;5042742;28;20489;-73
2024/01/26 02:11:56;;;;;;;20.98;14.48;;;11.20;97.60;;;;;;5038702;28;20799;-75
2024/01/26 02:14:22;;;;;;;20.10;14.65;;;11.20;97.70;;;;;;5037746;28;20376;-73
2024/01/26 02:16:58;;;;;;;19.67;14.52;;;11.30;97.60;;;;;;5038326;28;20558;-73
2024/01/26 02:19:25;;;;;;;19.60;14.55;;;11.30;97.60;;;;;;5035211;28;20037;-72
2024/01/26 02:21:51;;;;;;;15.35;13.20;;;11.30;97.60;;;;;;5049036;28;20404;-72
2024/01/26 02:24:17;;;;;;;17.90;14.00;;;11.30;97.60;;;;;;5034169;28;20549;-73
2024/01/26 02:26:43;;;;;;;17.13;12.65;;;11.30;97.60;;;;;;5045729;28;20024;-73
2024/01/26 02:29:10;;;;;;;18.48;13.80;;;11.30;97.50;;;;;;5024210;28;20470;-72
2024/01/26 02:31:35;;;;;;;16.45;13.02;;;11.30;97.60;;;;;;5033793;28;20039;-75
2024/01/26 02:34:01;;;;;;;16.65;13.43;;;11.30;97.60;;;;;;5035453;28;20113;-72
2024/01/26 02:36:28;;;;;;;18.98;13.00;;;11.30;97.50;;;;;;5035097;28;20433;-72
2024/01/26 02:38:54;;;;;;;15.57;12.10;;;11.30;97.60;;;;;;5039195;28;20029;-72
2024/01/26 02:41:20;;;;;;;18.17;12.93;;;11.40;97.50;;;;;;5039605;28;20025;-72
2024/01/26 02:43:46;;;;;;;18.65;13.55;;;11.30;97.50;;;;;;5034452;28;20029;-72
2024/01/26 02:46:11;;;;;;;18.83;12.88;;;11.30;97.50;;;;;;5035931;28;20021;-72
2024/01/26 02:48:38;;;;;;;19.35;13.75;;;11.30;97.50;;;;;;5035380;28;20021;-73
2024/01/26 02:51:04;;;;;;;17.42;13.27;;;11.30;97.50;;;;;;5042083;28;20369;-73
2024/01/26 02:53:30;;;;;;;17.92;13.63;;;11.30;97.50;;;;;;5051083;28;20172;-75
2024/01/26 02:55:56;;;;;;;17.67;13.80;;;11.30;97.50;;;;;;5036517;28;20467;-72
2024/01/26 02:58:22;;;;;;;17.85;13.20;;;11.40;97.50;;;;;;5040838;28;20020;-72
2024/01/26 03:00:48;;;;;;;20.33;13.73;;;11.40;97.40;;;;;;5037690;28;20041;-72
2024/01/26 03:03:13;;;;;;;19.27;13.63;;;11.40;97.50;;;;;;5035761;28;20365;-72
2024/01/26 03:05:40;;;;;;;18.70;13.93;;;11.40;97.40;;;;;;5036792;28;20033;-73
2024/01/26 03:08:07;;;;;;;17.05;13.75;;;11.30;97.30;;;;;;5040741;28;20022;-72
2024/01/26 03:10:32;;;;;;;17.63;13.90;;;11.30;97.40;;;;;;5042785;28;20033;-72
2024/01/26 03:12:58;;;;;;;19.08;13.80;;;11.30;97.40;;;;;;5048305;28;20048;-72
2024/01/26 03:15:24;;;;;;;20.65;13.15;;;11.30;97.40;;;;;;5031054;28;20100;-73
2024/01/26 03:17:49;;;;;;;20.35;14.38;;;11.30;97.50;;;;;;5036796;28;20013;-73
2024/01/26 03:20:16;;;;;;;19.38;13.50;;;11.30;97.50;;;;;;5044828;28;20122;-74
2024/01/26 03:22:43;;;;;;;16.45;13.95;;;11.30;97.40;;;;;;5042052;28;20408;-73
2024/01/26 03:25:09;;;;;;;20.25;13.85;;;11.30;97.50;;;;;;5043577;28;20373;-73
2024/01/26 03:27:35;;;;;;;18.73;14.35;;;11.30;97.40;;;;;;5032270;28;20017;-72
2024/01/26 03:30:01;;;;;;;20.95;13.30;;;11.30;97.50;;;;;;5046033;28;20053;-72
2024/01/26 03:32:26;;;;;;;17.58;14.27;;;11.30;97.50;;;;;;5049744;28;20025;-72
2024/01/26 03:34:52;;;;;;;17.95;13.35;;;11.40;97.40;;;;;;5043834;28;20041;-72
2024/01/26 03:37:18;;;;;;;19.27;13.13;;;11.30;97.30;;;;;;5043550;28;20016;-72
2024/01/26 03:39:43;;;;;;;20.85;14.07;;;11.30;97.40;;;;;;5037888;28;20037;-73
2024/01/26 03:42:11;;;;;;;19.08;13.43;;;11.30;97.50;;;;;;5038679;28;20080;-73
2024/01/26 03:44:37;;;;;;;17.27;13.05;;;11.30;97.50;;;;;;5030675;28;20029;-72
2024/01/26 03:47:03;;;;;;;17.38;12.63;;;11.30;97.40;;;;;;5044649;28;20021;-72
2024/01/26 03:49:29;;;;;;;18.55;13.82;;;11.30;97.50;;;;;;5037306;28;20366;-73
2024/01/26 03:51:55;;;;;;;17.10;13.48;;;11.40;97.40;;;;;;5038984;28;20023;-72
2024/01/26 03:54:20;;;;;;;17.35;13.00;;;11.30;97.40;;;;;;5031964;28;20454;-73
2024/01/26 03:56:46;;;;;;;19.05;14.20;;;11.30;97.50;;;;;;5034052;28;20056;-76
2024/01/26 03:59:12;;;;;;;18.45;13.15;;;11.40;97.50;;;;;;5037626;28;20484;-74
2024/01/26 04:01:38;;;;;;;20.58;14.48;;;11.30;97.40;;;;;;5047272;28;20017;-74
2024/01/26 04:04:03;;;;;;;19.40;14.65;;;11.30;97.40;;;;;;5041703;28;20041;-74
2024/01/26 04:06:29;;;;;;;21.10;15.02;;;11.40;97.40;;;;;;5042463;28;20079;-73
2024/01/26 04:08:56;;;;;;;19.23;13.65;;;11.40;97.30;;;;;;5040420;28;20083;-73
2024/01/26 04:11:22;;;;;;;19.83;13.75;;;11.40;97.30;;;;;;5031447;28;20017;-73
2024/01/26 04:13:47;;;;;;;20.77;14.30;;;11.40;97.20;;;;;;5041181;28;20081;-73
2024/01/26 04:16:13;;;;;;;20.48;14.45;;;11.40;97.30;;;;;;5036881;28;20025;-73
2024/01/26 04:18:40;;;;;;;17.75;13.52;;;11.40;97.20;;;;;;5042687;28;20021;-73
2024/01/26 04:21:06;;;;;;;21.10;13.63;;;11.40;97.20;;;;;;5039801;28;20025;-73
2024/01/26 04:23:32;;;;;;;18.30;13.15;;;11.40;97.20;;;;;;5037759;28;20021;-73
2024/01/26 04:25:58;;;;;;;20.17;13.63;;;11.40;97.30;;;;;;5035684;28;20430;-73
2024/01/26 04:28:23;;;;;;;19.85;13.60;;;11.40;97.30;;;;;;5039388;28;20053;-73
2024/01/26 04:30:49;;;;;;;18.20;13.48;;;11.40;97.20;;;;;;5038133;28;20116;-71
2024/01/26 04:33:15;;;;;;;19.30;13.25;;;11.40;97.30;;;;;;5046208;28;20346;-74
2024/01/26 04:35:40;;;;;;;21.27;13.15;;;11.40;97.40;;;;;;5037288;28;20045;-74
2024/01/26 04:38:07;;;;;;;19.48;13.98;;;11.40;97.40;;;;;;5047240;28;20055;-74
2024/01/26 04:40:33;;;;;;;21.88;13.88;;;11.40;97.50;;;;;;5045788;28;20127;-74
2024/01/26 04:42:59;;;;;;;23.48;13.63;;;11.40;97.60;;;;;;5044471;28;20104;-75
2024/01/26 04:45:25;;;;;;;23.92;15.00;;;11.40;97.60;;;;;;5037937;28;20079;-72
2024/01/26 04:47:50;;;;;;;17.50;13.43;;;11.40;97.70;;;;;;5041544;28;20021;-72
2024/01/26 04:50:16;;;;;;;18.23;13.25;;;11.30;97.90;;;;;;5043475;28;20535;-72
2024/01/26 04:52:41;;;;;;;18.95;13.90;;;11.30;98.00;;;;;;5035678;28;20017;-73
2024/01/26 04:55:08;;;;;;;18.58;13.48;;;11.30;98.10;;;;;;5045084;28;20040;-73
2024/01/26 04:57:34;;;;;;;20.50;14.00;;;11.30;98.30;;;;;;5046830;28;20021;-73
2024/01/26 05:00:00;;;;;;;17.05;14.65;;;11.30;98.40;;;;;;5039116;28;20135;-73
2024/01/26 05:02:25;;;;;;;21.10;13.38;;;11.20;98.40;;;;;;5037145;28;20536;-74
2024/01/26 05:04:51;;;;;;;18.90;14.57;;;11.20;98.60;;;;;;5038658;28;20035;-72
2024/01/26 05:07:17;;;;;;;22.20;14.23;;;11.20;98.60;;;;;;5043776;28;20017;-73
2024/01/26 05:09:42;;;;;;;19.30;13.50;;;11.20;98.70;;;;;;5027161;28;20037;-73
2024/01/26 05:12:08;;;;;;;20.38;13.70;;;11.20;98.70;;;;;;5034322;28;20037;-72
2024/01/26 05:14:37;;;;;;;19.70;13.75;;;11.10;98.80;;;;;;5049610;28;20127;-73
2024/01/26 05:17:03;;;;;;;18.88;13.75;;;11.10;98.80;;;;;;5044675;28;20059;-72
2024/01/26 05:19:29;;;;;;;18.60;13.80;;;11.10;98.80;;;;;;5041080;28;20057;-73
2024/01/26 05:21:54;;;;;;;20.30;13.55;;;11.10;98.90;;;;;;5034838;28;20071;-73
2024/01/26 05:24:20;;;;;;;20.50;14.63;;;11.10;98.90;;;;;;5037471;28;20434;-73
2024/01/26 05:26:46;;;;;;;18.50;14.32;;;11.10;98.90;;;;;;5045230;28;20017;-73
2024/01/26 05:29:14;;;;;;;19.48;14.70;;;11.10;99.00;;;;;;5038029;28;20439;-73
2024/01/26 05:31:41;;;;;;;19.00;13.77;;;11.10;99.00;;;;;;5032085;28;20466;-73
2024/01/26 05:34:07;;;;;;;18.60;14.13;;;11.10;99.00;;;;;;5042961;28;20060;-73
2024/01/26 05:36:38;;;;;;;18.95;13.88;;;11.10;99.10;;;;;;5032799;28;20076;-73
2024/01/26 05:39:04;;;;;;;18.25;14.25;;;11.10;99.20;;;;;;5038207;28;20083;-75
2024/01/26 05:41:29;;;;;;;20.15;14.32;;;11.10;99.20;;;;;;5042472;28;20021;-73
2024/01/26 05:43:55;;;;;;;19.27;13.65;;;11.10;99.20;;;;;;5038723;28;20375;-73
2024/01/26 05:46:21;;;;;;;18.98;13.35;;;11.10;99.20;;;;;;5036361;28;20029;-73
2024/01/26 05:48:46;;;;;;;20.80;14.60;;;11.20;99.20;;;;;;5034353;28;20024;-73
2024/01/26 05:51:12;;;;;;;19.02;15.07;;;11.10;99.30;;;;;;5027840;28;20485;-73
2024/01/26 05:53:38;;;;;;;20.92;13.68;;;11.20;99.30;;;;;;5034627;28;20029;-75
2024/01/26 05:56:04;;;;;;;19.33;14.38;;;11.10;99.20;;;;;;5041434;28;20078;-73
2024/01/26 05:58:31;;;;;;;19.13;13.45;;;11.10;99.20;;;;;;5041280;28;20020;-76
2024/01/26 06:00:57;;;;;;;20.15;13.65;;;11.20;99.30;;;;;;5032985;28;20426;-73
2024/01/26 06:03:23;;;;;;;21.08;13.45;;;11.20;99.30;;;;;;5041290;28;20021;-73
2024/01/26 06:05:49;;;;;;;19.17;14.00;;;11.20;99.30;;;;;;5030463;28;20112;-74
2024/01/26 06:08:14;;;;;;;16.73;13.10;;;11.10;99.30;;;;;;5042338;28;20049;-74
2024/01/26 06:10:40;;;;;;;20.52;13.45;;;11.20;99.40;;;;;;5031154;28;20406;-74
2024/01/26 06:13:05;;;;;;;20.25;13.68;;;11.30;99.30;;;;;;5047654;28;20033;-74
2024/01/26 06:15:31;;;;;;;18.33;13.80;;;11.30;99.40;;;;;;5032741;28;20021;-73
2024/01/26 06:17:57;;;;;;;21.48;13.50;;;11.30;99.30;;;;;;5033123;28;20072;-74
2024/01/26 06:20:22;;;;;;;18.25;12.68;;;11.30;99.30;;;;;;5039138;28;20148;-73
2024/01/26 06:22:48;;;;;;;19.70;13.52;;;11.40;99.30;;;;;;5038210;28;20025;-73
2024/01/26 06:25:13;;;;;;;20.95;13.02;;;11.40;99.30;;;;;;5036061;28;20136;-75
2024/01/26 06:27:39;;;;;;;17.58;13.25;;;11.40;99.30;;;;;;5032145;28;20273;-73
2024/01/26 06:30:05;;;;;;;15.95;12.05;;;11.50;99.30;;;;;;5036603;28;20044;-75
2024/01/26 06:32:31;;;;;;;16.42;12.32;;;11.40;99.20;;;;;;5042967;28;20029;-73
2024/01/26 06:34:57;;;;;;;17.92;11.15;;;11.50;99.30;;;;;;5034636;28;20063;-74
2024/01/26 06:37:22;;;;;;;16.90;12.18;;;11.50;99.30;;;;;;5041809;28;20523;-74
2024/01/26 06:39:48;;;;;;;16.23;11.43;;;11.50;99.30;;;;;;5032968;28;20098;-73
2024/01/26 06:42:13;;;;;;;20.10;12.43;;;11.60;99.30;;;;;;5032433;28;20203;-73
2024/01/26 06:44:40;;;;;;;16.67;12.05;;;11.60;99.20;;;;;;5027135;28;20103;-73
2024/01/26 06:47:06;;;;;;;18.75;12.20;;;11.60;99.20;;;;;;5028199;28;20531;-74
2024/01/26 06:49:31;;;;;;;16.65;11.52;;;11.60;99.20;;;;;;5037197;28;20116;-74
2024/01/26 06:51:57;;;;;;;15.23;12.10;;;11.60;99.30;;;;;;5034236;28;20443;-75
2024/01/26 06:54:22;;;;;;;17.17;11.30;;;11.60;99.30;;;;;;5036679;28;20091;-75
2024/01/26 06:56:48;;;;;;;17.83;11.80;;;11.60;99.40;;;;;;5032303;28;20021;-76
2024/01/26 06:59:13;;;;;;;15.32;10.98;;;11.60;99.40;;;;;;5034519;28;20045;-76
2024/01/26 07:01:39;;;;;;;15.00;10.65;;;11.60;99.40;;;;;;5047534;28;20473;-75
2024/01/26 07:04:05;;;;;;;13.82;10.30;;;11.70;99.50;;;;;;5033902;28;20041;-76
2024/01/26 07:06:31;;;;;;;15.18;10.80;;;11.70;99.40;;;;;;5035584;28;20029;-75
2024/01/26 07:08:57;;;;;;;14.10;10.13;;;11.70;99.50;;;;;;5041947;28;20025;-73
2024/01/26 07:11:24;;;;;;;15.45;9.95;;;11.80;99.40;;;;;;5037382;28;20032;-74
2024/01/26 07:13:50;;;;;;;14.05;10.57;;;11.80;99.50;;;;;;5029997;28;20379;-72
2024/01/26 07:16:16;;;;;;;12.60;9.40;;;11.80;99.50;;;;;;5037367;28;20031;-74
2024/01/26 07:18:41;;;;;;;13.15;10.00;;;11.80;99.50;;;;;;5037353;28;20017;-75
2024/01/26 07:21:08;;;;;;;15.68;10.10;;;11.90;99.50;;;;;;5042742;28;20033;-74
2024/01/26 07:23:34;;;;;;;15.40;11.77;;;11.90;99.50;;;;;;5042381;28;20014;-73
2024/01/26 07:26:00;;;;;;;14.55;11.57;;;11.90;99.50;;;;;;5039695;28;20032;-74
2024/01/26 07:28:27;;;;;;;16.55;11.98;;;12.00;99.60;;;;;;5043924;28;20083;-74
2024/01/26 07:30:52;;;;;;;15.73;12.60;;;12.00;99.50;;;;;;5039907;28;20040;-74
2024/01/26 07:33:18;;;;;;;17.05;12.52;;;12.10;99.60;;;;;;5043452;28;20059;-75
2024/01/26 07:35:43;;;;;;;18.52;12.32;;;12.10;99.50;;;;;;5047816;28;20098;-74
2024/01/26 07:38:09;;;;;;;15.88;12.18;;;12.10;99.40;;;;;;5057037;28;20421;-74
2024/01/26 07:40:35;;;;;;;15.77;10.38;;;12.10;99.30;;;;;;5045874;28;20461;-73
2024/01/26 07:43:01;;;;;;;13.05;7.45;;;12.10;99.30;;;;;;5041458;28;20454;-73
2024/01/26 07:45:27;;;;;;;15.05;7.20;;;12.10;99.20;;;;;;5042154;28;20091;-72
2024/01/26 07:47:52;;;;;;;10.93;5.28;;;12.10;99.00;;;;;;5034208;28;20090;-73
2024/01/26 07:50:18;;;;;;;13.77;4.60;;;12.10;99.00;;;;;;5039839;28;20037;-72
2024/01/26 07:52:44;;;;;;;12.93;5.63;;;12.20;98.80;;;;;;5038666;28;20048;-72
2024/01/26 07:55:09;;;;;;;10.77;4.00;;;12.20;98.60;;;;;;5045806;28;20033;-73
2024/01/26 07:57:37;;;;;;;9.52;3.70;;;12.20;98.40;;;;;;5032983;28;20088;-72
2024/01/26 08:00:10;;;;;;;10.45;4.10;;;12.20;98.20;;;;;;5036689;28;20480;-72
2024/01/26 08:02:36;;;;;;;13.02;4.68;;;12.20;98.00;;;;;;5027414;28;20010;-72
2024/01/26 08:05:01;;;;;;;10.25;4.13;;;12.30;97.90;;;;;;5030230;28;20060;-72
2024/01/26 08:07:27;;;;;;;15.35;4.43;;;12.30;97.70;;;;;;5037875;28;20462;-72
2024/01/26 08:09:53;;;;;;;13.50;4.20;;;12.30;97.50;;;;;;5041301;28;20497;-72
2024/01/26 08:12:19;;;;;;;13.70;4.22;;;12.30;97.40;;;;;;5037916;28;20074;-71
2024/01/26 08:14:45;;;;;;;14.68;4.18;;;12.30;97.30;;;;;;5040060;28;20745;-72
2024/01/26 08:17:10;;;;;;;14.07;4.40;;;12.30;97.20;;;;;;5039695;28;20100;-72
2024/01/26 08:19:36;;;;;;;15.50;3.78;;;12.30;97.20;;;;;;5038986;28;20033;-72
2024/01/26 08:22:03;;;;;;;17.42;4.60;;;12.30;97.20;;;;;;5034525;28;20017;-72
2024/01/26 08:24:29;;;;;;;17.92;4.32;;;12.20;97.40;;;;;;5034632;28;20048;-72
2024/01/26 08:26:55;;;;;;;14.80;4.68;;;12.20;97.30;;;;;;5041594;28;20013;-71
2024/01/26 08:29:24;;;;;;;19.20;5.25;;;12.20;97.50;;;;;;5030183;28;20102;-71
2024/01/26 08:31:50;;;;;;;15.27;4.60;;;12.10;97.50;;;;;;5031019;28;20458;-71
2024/01/26 08:34:16;;;;;;;14.93;4.65;;;12.10;97.90;;;;;;5036742;28;20871;-71
2024/01/26 08:36:41;;;;;;;9.50;2.47;;;12.00;98.00;;;;;;5031928;28;20075;-73
2024/01/26 08:39:11;;;;;;;12.25;3.20;;;11.60;96.90;;;;;;5033058;28;20394;-72
2024/01/26 08:41:37;;;;;;;18.13;3.58;;;11.60;97.60;;;;;;5035873;28;20489;-72
2024/01/26 08:44:03;;;;;;;14.82;2.92;;;11.60;98.00;;;;;;5043290;28;20789;-72
2024/01/26 08:46:29;;;;;;;11.82;3.10;;;11.50;97.30;;;;;;5044141;28;20108;-73
2024/01/26 08:48:55;;;;;;;17.42;4.78;;;11.60;97.40;;;;;;5032672;28;20042;-72
2024/01/26 08:51:21;;;;;;;18.85;3.95;;;11.60;97.50;;;;;;5037603;28;20025;-73
2024/01/26 08:53:47;;;;;;;21.08;4.60;;;11.70;97.40;;;;;;5041262;28;20021;-77
2024/01/26 08:56:14;;;;;;;17.23;4.30;;;11.70;97.30;;;;;;5041889;28;20480;-73
2024/01/26 08:58:41;;;;;;;24.52;5.25;;;11.60;97.10;;;;;;5037173;28;20063;-73
2024/01/26 09:01:07;;;;;;;18.75;4.88;;;11.70;97.00;;;;;;5039197;28;20037;-74
2024/01/26 09:03:33;;;;;;;20.50;4.78;;;11.80;96.80;;;;;;5055362;28;20025;-74
2024/01/26 09:05:59;;;;;;;20.70;4.70;;;11.70;96.00;;;;;;5039561;28;20135;-73
2024/01/26 09:08:25;;;;;;;24.02;5.38;;;11.70;95.20;;;;;;5046057;28;20020;-73
2024/01/26 09:10:50;;;;;;;21.73;5.13;;;11.70;95.00;;;;;;5041987;28;20041;-73
2024/01/26 09:13:16;;;;;;;17.27;4.45;;;11.80;94.80;;;;;;5042686;28;20036;-71
2024/01/26 09:15:42;;;;;;;20.98;4.15;;;11.70;94.20;;;;;;5033421;28;20088;-73
2024/01/26 09:18:08;;;;;;;21.10;3.65;;;11.60;93.20;;;;;;5039579;28;20036;-71
2024/01/26 09:20:34;;;;;;;16.75;4.20;;;11.60;93.00;;;;;;5037030;28;20061;-73
2024/01/26 09:22:59;;;;;;;17.83;4.00;;;11.60;92.80;;;;;;5048583;28;20043;-73
2024/01/26 09:25:25;;;;;;;17.77;4.40;;;11.60;92.20;;;;;;5033817;28;20458;-75
2024/01/26 09:27:51;;;;;;;15.43;3.85;;;11.60;91.60;;;;;;5039487;28;20059;-73
2024/01/26 09:30:16;;;;;;;15.63;4.43;;;11.60;91.50;;;;;;5037011;28;20477;-73
2024/01/26 09:32:42;;;;;;;15.32;4.40;;;11.60;90.30;;;;;;5049186;28;20017;-74
2024/01/26 09:35:09;;;;;;;15.27;3.80;;;11.50;89.40;;;;;;5036089;28;20064;-74
2024/01/26 09:37:36;;;;;;;20.17;3.22;;;11.50;89.10;;;;;;5042217;28;20021;-74
2024/01/26 09:40:02;;;;;;;8.82;2.53;;;11.50;88.50;;;;;;5042959;28;20064;-74
2024/01/26 09:42:28;;;;;;;7.93;2.10;;;11.10;82.10;;;;;;5033802;28;20378;-73
2024/01/26 09:44:55;;;;;;;10.50;2.30;;;10.90;79.50;;;;;;5027700;28;20432;-75
2024/01/26 09:47:24;;;;;;;10.40;2.33;;;10.80;79.90;;;;;;5032382;28;20314;-73
2024/01/26 09:49:55;;;;;;;8.77;2.15;;;10.70;80.00;;;;;;5024815;28;20042;-74
2024/01/26 09:52:22;;;;;;;11.55;2.58;;;10.80;80.00;;;;;;5024025;28;20063;-74
2024/01/26 09:54:49;;;;;;;9.18;2.40;;;10.90;80.70;;;;;;5028266;28;20053;-72
2024/01/26 09:57:16;;;;;;;9.68;2.10;;;11.00;79.70;;;;;;5035175;28;20028;-72
2024/01/26 09:59:42;;;;;;;9.98;1.88;;;10.90;78.90;;;;;;5042173;28;20025;-75
2024/01/26 10:02:09;;;;;;;7.13;1.88;;;10.90;78.80;;;;;;5029662;28;20059;-72
2024/01/26 10:04:35;;;;;;;7.75;1.75;;;11.00;79.00;;;;;;5031572;28;20036;-72
2024/01/26 10:07:02;;;;;;;7.97;1.58;;;10.90;77.70;;;;;;5035201;28;20021;-72
2024/01/26 10:09:29;;;;;;;9.43;2.83;;;10.80;77.50;;;;;;5036931;28;20036;-72
2024/01/26 10:11:54;;;;;;;10.40;1.88;;;10.80;78.30;;;;;;5038577;28;20075;-73
2024/01/26 10:14:24;;;;;;;8.77;1.90;;;10.80;77.20;;;;;;5035846;28;20454;-73
2024/01/26 10:17:01;;;;;;;8.43;2.20;;;10.70;75.80;;;;;;5036492;28;20017;-74
2024/01/26 10:19:28;;;;;;;9.38;2.40;;;10.70;77.10;;;;;;5049590;28;20060;-73
2024/01/26 10:21:55;;;;;;;11.90;2.10;;;10.60;75.50;;;;;;5042947;28;20057;-73
2024/01/26 10:24:23;;;;;;;9.52;2.38;;;10.60;76.40;;;;;;5043008;28;20028;-73
2024/01/26 10:26:50;;;;;;;9.80;1.90;;;10.60;75.10;;;;;;5038813;28;20100;-73
2024/01/26 10:29:16;;;;;;;8.98;2.30;;;10.60;76.30;;;;;;5027623;28;20483;-74
2024/01/26 10:31:42;;;;;;;11.68;2.22;;;10.70;75.40;;;;;;5037562;28;20104;-74
2024/01/26 10:34:14;;;;;;;10.65;1.92;;;10.70;74.80;;;;;;5048457;28;20094;-77
2024/01/26 10:36:45;;;;;;;8.38;1.65;;;10.60;74.90;;;;;;5049588;28;20040;-73
2024/01/26 10:39:22;;;;;;;7.50;1.85;;;10.60;74.40;;;;;;5055109;28;20037;-73
2024/01/26 10:41:49;;;;;;;13.32;2.50;;;10.60;74.30;;;;;;5057679;28;20036;-73
2024/01/26 10:44:16;;;;;;;9.50;2.42;;;10.70;74.10;;;;;;5046029;28;20041;-76
2024/01/26 10:46:42;;;;;;;6.78;1.80;;;10.60;72.00;;;;;;5057952;28;20019;-75
2024/01/26 10:49:11;;;;;;;10.77;2.00;;;10.50;69.80;;;;;;5048841;28;20045;-74
2024/01/26 10:51:38;;;;;;;10.02;2.30;;;10.40;71.40;;;;;;5054521;28;20037;-74
2024/01/26 10:54:11;;;;;;;10.65;1.88;;;10.50;72.90;;;;;;5037056;28;20026;-73
2024/01/26 10:56:40;;;;;;;11.60;3.00;;;10.60;73.60;;;;;;5029262;28;20108;-73
2024/01/26 10:59:10;;;;;;;7.72;2.20;;;10.70;74.30;;;;;;5038192;28;20040;-75
2024/01/26 11:01:37;;;;;;;10.02;2.40;;;10.80;73.70;;;;;;5041803;28;20024;-73
2024/01/26 11:04:03;;;;;;;10.50;2.55;;;10.60;74.10;;;;;;5035722;28;20166;-73
2024/01/26 11:06:31;;;;;;;13.25;2.60;;;10.60;75.00;;;;;;5034186;28;20374;-73
2024/01/26 11:09:05;;;;;;;11.80;2.38;;;10.50;75.00;;;;;;5033531;28;20037;-72
2024/01/26 11:11:40;;;;;;;9.25;2.17;;;10.60;76.00;;;;;;5047485;28;20056;-79
2024/01/26 11:14:10;;;;;;;14.13;2.13;;;10.60;74.20;;;;;;5051107;28;20028;-77
2024/01/26 11:16:42;;;;;;;9.60;2.38;;;10.60;71.50;;;;;;5046644;28;20350;-76
2024/01/26 11:19:08;;;;;;;9.80;1.88;;;10.40;70.40;;;;;;5030774;28;20029;-76
2024/01/26 11:21:42;;;;;;;8.93;2.05;;;10.40;70.20;;;;;;5030049;28;20386;-73
2024/01/26 11:24:19;;;;;;;10.30;2.33;;;10.30;69.20;;;;;;5035350;28;20037;-76
2024/01/26 11:26:56;;;;;;;13.00;2.22;;;10.40;71.50;;;;;;5037540;28;20024;-75
2024/01/26 11:29:22;;;;;;;11.27;2.20;;;10.50;69.70;;;;;;5039073;28;20075;-75
2024/01/26 11:31:49;;;;;;;10.15;1.80;;;10.40;69.60;;;;;;5038716;28;20033;-76
2024/01/26 11:34:32;;;;;;;8.70;1.83;;;10.40;70.50;;;;;;5028495;28;20033;-76
2024/01/26 11:37:13;;;;;;;8.75;2.10;;;10.50;71.20;;;;;;5050565;28;20369;-75
2024/01/26 11:39:39;;;;;;;6.97;1.83;;;10.40;72.00;;;;;;5032603;28;20115;-77
2024/01/26 11:42:10;;;;;;;8.75;1.90;;;10.40;71.10;;;;;;5035092;28;20104;-75
2024/01/26 11:44:42;;;;;;;9.73;2.38;;;10.40;71.80;;;;;;5035807;28;20109;-77
2024/01/26 11:47:11;;;;;;;10.80;1.92;;;10.50;72.20;;;;;;5034799;28;20029;-80
2024/01/26 11:49:39;;;;;;;8.55;2.30;;;10.60;71.10;;;;;;5035685;28;20052;-74
2024/01/26 11:52:05;;;;;;;10.75;2.20;;;10.50;70.60;;;;;;5032943;28;20032;-75
2024/01/26 11:54:32;;;;;;;12.30;2.38;;;10.40;68.40;;;;;;5037390;28;20099;-75
2024/01/26 11:56:58;;;;;;;8.40;2.17;;;10.20;66.80;;;;;;5039381;28;20018;-75
2024/01/26 11:59:24;;;;;;;6.97;1.70;;;10.30;67.90;;;;;;5034839;28;20033;-74
2024/01/26 12:01:49;;;;;;;9.23;1.83;;;10.20;67.00;;;;;;5038953;28;20025;-73
2024/01/26 12:04:16;;;;;;;8.63;1.63;;;10.30;67.10;;;;;;5045454;28;20107;-75
2024/01/26 12:06:42;;;;;;;11.20;2.47;;;10.50;68.70;;;;;;5039370;28;20040;-73
2024/01/26 12:09:09;;;;;;;14.52;2.13;;;10.50;68.10;;;;;;5033998;28;20518;-74
2024/01/26 12:11:36;;;;;;;9.32;2.40;;;10.30;65.80;;;;;;5039643;28;20099;-74
2024/01/26 12:14:01;;;;;;;13.45;2.00;;;10.10;65.10;;;;;;5036001;28;20048;-75
2024/01/26 12:16:30;;;;;;;11.70;2.20;;;10.10;66.20;;;;;;5036947;28;20052;-76
2024/01/26 12:18:56;;;;;;;8.45;2.28;;;10.10;66.30;;;;;;5035215;28;20025;-77
2024/01/26 12:21:21;;;;;;;9.48;2.10;;;10.10;66.30;;;;;;5042064;28;20105;-76
2024/01/26 12:23:50;;;;;;;7.57;2.13;;;10.10;65.80;;;;;;5034338;28;20029;-75
2024/01/26 12:26:16;;;;;;;10.50;2.42;;;10.10;66.30;;;;;;5032373;28;20025;-75
2024/01/26 12:28:42;;;;;;;11.68;3.00;;;10.10;66.70;;;;;;5042427;28;20021;-75
2024/01/26 12:31:08;;;;;;;12.18;2.47;;;10.10;67.20;;;;;;5035859;28;20112;-79